createdAt,value
2018-09-26T00:00:32.623Z,7.28
2018-09-26T00:03:08.712Z,7.26
2018-09-26T00:05:36.530Z,7.28
2018-09-26T00:08:04.314Z,7.28
2018-09-26T00:10:32.127Z,7.29
2018-09-26T00:12:59.902Z,7.32
2018-09-26T00:15:27.586Z,7.28
2018-09-26T00:17:55.516Z,7.24
2018-09-26T00:20:23.214Z,7.27
2018-09-26T00:22:51.054Z,7.34
2018-09-26T00:25:18.711Z,7.39
2018-09-26T00:27:46.414Z,7.49
2018-09-26T00:30:14.230Z,7.57
2018-09-26T00:32:41.981Z,7.59
2018-09-26T00:35:09.734Z,7.59
2018-09-26T00:37:37.540Z,7.57
2018-09-26T00:40:05.801Z,7.58
2018-09-26T00:42:33.565Z,7.57
2018-09-26T00:45:01.372Z,7.53
2018-09-26T00:47:29.246Z,7.45
2018-09-26T00:49:56.992Z,7.41
2018-09-26T00:52:24.748Z,7.33
2018-09-26T00:54:52.466Z,7.31
2018-09-26T00:57:20.149Z,7.30
2018-09-26T00:59:47.873Z,7.33
2018-09-26T01:02:15.535Z,7.32
2018-09-26T01:04:43.292Z,7.24
2018-09-26T01:07:11.204Z,7.24
2018-09-26T01:09:38.937Z,7.21
2018-09-26T01:12:06.675Z,7.15
2018-09-26T01:14:34.486Z,7.13
2018-09-26T01:17:02.189Z,7.13
2018-09-26T01:19:29.940Z,7.14
2018-09-26T01:21:59.898Z,7.10
2018-09-26T01:24:27.743Z,7.08
2018-09-26T01:26:55.565Z,7.03
2018-09-26T01:29:23.301Z,7.03
2018-09-26T01:31:51.049Z,6.97
2018-09-26T01:34:18.735Z,6.97
2018-09-26T01:36:46.411Z,6.97
2018-09-26T01:39:14.222Z,6.92
2018-09-26T01:41:41.972Z,6.90
2018-09-26T01:44:09.752Z,6.93
2018-09-26T01:46:37.450Z,6.88
2018-09-26T01:49:05.277Z,6.84
2018-09-26T01:51:33.073Z,6.80
2018-09-26T01:54:00.765Z,6.77
2018-09-26T01:56:28.542Z,6.70
2018-09-26T01:58:56.300Z,6.63
2018-09-26T02:01:25.650Z,6.61
2018-09-26T02:03:53.509Z,6.56
2018-09-26T02:06:21.289Z,6.52
2018-09-26T02:08:49.024Z,6.47
2018-09-26T02:11:16.840Z,6.45
2018-09-26T02:13:44.589Z,6.42
2018-09-26T02:16:12.385Z,6.41
2018-09-26T02:18:40.095Z,6.41
2018-09-26T02:21:07.917Z,6.39
2018-09-26T02:23:35.697Z,6.38
2018-09-26T02:26:03.425Z,6.32
2018-09-26T02:28:31.215Z,6.31
2018-09-26T02:30:58.984Z,6.34
2018-09-26T02:33:26.782Z,6.35
2018-09-26T02:35:54.530Z,6.40
2018-09-26T02:38:22.220Z,6.42
2018-09-26T02:40:49.919Z,6.41
2018-09-26T02:43:17.826Z,6.40
2018-09-26T02:45:45.580Z,6.37
2018-09-26T02:48:18.762Z,6.35
2018-09-26T02:50:46.560Z,6.33
2018-09-26T02:53:14.275Z,6.38
2018-09-26T02:55:42.072Z,6.39
2018-09-26T02:58:09.738Z,6.37
2018-09-26T03:00:37.497Z,6.37
2018-09-26T03:03:05.388Z,6.38
2018-09-26T03:05:33.140Z,6.34
2018-09-26T03:08:00.900Z,6.38
2018-09-26T03:10:28.689Z,6.40
2018-09-26T03:12:56.484Z,6.41
2018-09-26T03:15:24.966Z,6.40
2018-09-26T03:17:53.009Z,6.46
2018-09-26T03:20:20.777Z,6.45
2018-09-26T03:22:48.562Z,6.45
2018-09-26T03:25:16.334Z,6.41
2018-09-26T03:27:44.118Z,6.40
2018-09-26T03:30:11.869Z,6.37
2018-09-26T03:32:39.689Z,6.39
2018-09-26T03:35:07.434Z,6.40
2018-09-26T03:37:35.148Z,6.47
2018-09-26T03:40:02.898Z,6.50
2018-09-26T03:42:30.621Z,6.45
2018-09-26T03:44:58.378Z,6.40
2018-09-26T03:47:26.289Z,6.36
2018-09-26T03:49:54.024Z,6.39
2018-09-26T03:52:21.780Z,6.38
2018-09-26T03:54:49.580Z,6.44
2018-09-26T03:57:17.285Z,6.46
2018-09-26T03:59:44.987Z,6.43
2018-09-26T04:02:12.850Z,6.41
2018-09-26T04:04:40.580Z,6.37
2018-09-26T04:07:08.254Z,6.45
2018-09-26T04:09:35.954Z,6.51
2018-09-26T04:12:03.737Z,6.54
2018-09-26T04:14:31.446Z,6.58
2018-09-26T04:16:59.155Z,6.65
2018-09-26T04:19:26.910Z,6.68
2018-09-26T04:21:54.720Z,6.70
2018-09-26T04:24:22.498Z,6.69
2018-09-26T04:26:50.518Z,6.68
2018-09-26T04:29:17.965Z,6.68
2018-09-26T04:31:45.673Z,6.71
2018-09-26T04:34:13.441Z,6.76
2018-09-26T04:36:41.206Z,6.68
2018-09-26T04:39:10.512Z,6.61
2018-09-26T04:41:38.259Z,6.64
2018-09-26T04:44:05.981Z,6.65
2018-09-26T04:46:33.808Z,6.63
2018-09-26T04:49:01.578Z,6.61
2018-09-26T04:51:29.513Z,6.64
2018-09-26T04:53:57.198Z,6.69
2018-09-26T04:56:25.006Z,6.76
2018-09-26T04:58:52.769Z,6.66
2018-09-26T05:01:20.541Z,6.69
2018-09-26T05:03:48.288Z,6.62
2018-09-26T05:06:16.094Z,6.64
2018-09-26T05:08:44.248Z,6.61
2018-09-26T05:11:12.135Z,6.67
2018-09-26T05:13:40.267Z,6.61
2018-09-26T05:16:07.959Z,6.67
2018-09-26T05:18:35.840Z,6.69
2018-09-26T05:21:03.709Z,6.76
2018-09-26T05:23:31.615Z,6.81
2018-09-26T05:25:59.569Z,6.91
2018-09-26T05:28:27.416Z,7.00
2018-09-26T05:30:55.497Z,7.12
2018-09-26T05:33:23.477Z,7.28
2018-09-26T05:35:51.334Z,7.39
2018-09-26T05:38:19.345Z,7.40
2018-09-26T05:40:47.177Z,7.42
2018-09-26T05:43:15.174Z,7.48
2018-09-26T05:45:43.341Z,7.60
2018-09-26T05:48:11.243Z,7.63
2018-09-26T05:50:39.194Z,7.61
2018-09-26T05:53:10.396Z,7.65
2018-09-26T05:55:39.221Z,7.70
2018-09-26T05:58:08.995Z,7.70
2018-09-26T06:00:40.957Z,7.65
2018-09-26T06:03:11.878Z,7.64
2018-09-26T06:05:39.744Z,7.59
2018-09-26T06:08:14.828Z,7.52
2018-09-26T06:10:46.776Z,7.54
2018-09-26T06:13:14.738Z,7.57
2018-09-26T06:15:42.497Z,7.69
2018-09-26T06:18:10.334Z,7.78
2018-09-26T06:20:38.540Z,7.95
2018-09-26T06:23:08.942Z,8.14
2018-09-26T06:25:37.139Z,8.35
2018-09-26T06:28:05.084Z,8.51
2018-09-26T06:30:32.901Z,8.65
2018-09-26T06:33:01.800Z,8.81
2018-09-26T06:35:34.211Z,9.00
2018-09-26T06:38:06.353Z,9.15
2018-09-26T06:40:35.247Z,9.27
2018-09-26T06:43:03.002Z,9.38
2018-09-26T06:45:37.376Z,9.37
2018-09-26T06:48:07.018Z,9.25
2018-09-26T06:50:34.903Z,9.25
2018-09-26T06:53:02.742Z,9.30
2018-09-26T06:55:31.674Z,9.34
2018-09-26T06:58:01.420Z,9.32
2018-09-26T07:00:29.392Z,9.59
2018-09-26T07:02:58.185Z,9.76
2018-09-26T07:05:28.010Z,10.02
2018-09-26T07:08:05.003Z,10.40
2018-09-26T07:10:46.182Z,10.83
2018-09-26T07:13:29.325Z,11.21
2018-09-26T07:15:57.195Z,11.64
2018-09-26T07:18:30.159Z,12.10
2018-09-26T07:20:58.096Z,12.55
2018-09-26T07:23:26.316Z,13.31
2018-09-26T07:25:56.555Z,13.94
2018-09-26T07:28:29.242Z,14.64
2018-09-26T07:31:01.341Z,15.40
2018-09-26T07:33:36.331Z,15.92
2018-09-26T07:38:52.861Z,15.55
2018-09-26T07:41:21.020Z,15.20
2018-09-26T07:43:49.125Z,14.84
2018-09-26T07:46:17.207Z,15.27
2018-09-26T07:48:45.177Z,15.34
2018-09-26T07:51:13.249Z,15.55
2018-09-26T07:53:41.310Z,15.76
2018-09-26T08:03:07.147Z,16.91
2018-09-26T08:05:35.303Z,17.16
2018-09-26T08:08:03.480Z,17.93
2018-09-26T08:10:31.449Z,18.47
2018-09-26T08:12:59.458Z,18.35
2018-09-26T08:15:27.285Z,18.28
2018-09-26T08:17:55.650Z,18.14
2018-09-26T08:20:23.832Z,18.40
2018-09-26T08:22:51.712Z,19.25
2018-09-26T08:25:19.572Z,20.16
2018-09-26T08:27:47.622Z,20.64
2018-09-26T08:30:15.624Z,20.70
2018-09-26T08:32:43.594Z,21.31
2018-09-26T08:35:11.981Z,21.69
2018-09-26T08:37:39.864Z,22.28
2018-09-26T08:40:07.954Z,22.70
2018-09-26T08:42:35.958Z,22.10
2018-09-26T08:45:03.961Z,22.88
2018-09-26T08:47:31.865Z,23.37
2018-09-26T08:49:59.818Z,23.56
2018-09-26T08:52:27.793Z,23.50
2018-09-26T08:54:55.939Z,24.00
2018-09-26T08:57:23.729Z,24.16
2018-09-26T08:59:51.684Z,23.89
2018-09-26T09:02:19.615Z,24.03
2018-09-26T09:04:48.071Z,24.38
2018-09-26T09:07:16.308Z,24.60
2018-09-26T09:09:44.155Z,25.14
2018-09-26T09:12:12.081Z,25.20
2018-09-26T09:14:40.099Z,25.26
2018-09-26T09:17:07.863Z,24.94
2018-09-26T09:19:35.814Z,25.34
2018-09-26T09:22:03.831Z,25.23
2018-09-26T09:24:31.797Z,24.46
2018-09-26T09:26:59.862Z,23.87
2018-09-26T09:29:27.905Z,23.53
2018-09-26T09:31:55.802Z,23.55
2018-09-26T09:34:23.760Z,23.70
2018-09-26T09:36:51.743Z,23.89
2018-09-26T09:39:19.810Z,23.96
2018-09-26T09:41:47.746Z,23.37
2018-09-26T09:44:15.577Z,23.09
2018-09-26T09:46:43.540Z,22.95
2018-09-26T09:49:11.370Z,22.87
2018-09-26T09:51:39.837Z,22.65
2018-09-26T09:54:07.870Z,22.02
2018-09-26T09:56:36.025Z,21.84
2018-09-26T09:59:04.325Z,21.40
2018-09-26T10:01:32.209Z,21.57
2018-09-26T10:04:00.538Z,21.54
2018-09-26T10:06:29.083Z,21.82
2018-09-26T10:08:57.293Z,22.17
2018-09-26T10:11:25.312Z,22.25
2018-09-26T10:13:53.168Z,22.14
2018-09-26T10:16:21.192Z,22.41
2018-09-26T10:18:49.034Z,22.85
2018-09-26T10:21:17.017Z,23.42
2018-09-26T10:23:45.094Z,23.13
2018-09-26T10:26:13.041Z,23.20
2018-09-26T10:28:41.312Z,22.81
2018-09-26T10:31:09.429Z,23.00
2018-09-26T10:33:37.467Z,23.23
2018-09-26T10:36:05.344Z,23.38
2018-09-26T10:38:33.235Z,23.27
2018-09-26T10:41:01.224Z,23.49
2018-09-26T10:43:29.064Z,23.42
2018-09-26T10:45:57.163Z,23.14
2018-09-26T10:48:25.107Z,23.38
2018-09-26T10:50:52.979Z,24.15
2018-09-26T10:53:20.904Z,24.90
2018-09-26T10:55:48.750Z,25.11
2018-09-26T10:58:16.594Z,25.22
2018-09-26T11:00:44.494Z,25.46
2018-09-26T11:03:12.352Z,26.29
2018-09-26T11:05:40.267Z,26.78
2018-09-26T11:08:08.589Z,27.09
2018-09-26T11:10:36.686Z,27.46
2018-09-26T11:13:04.873Z,28.08
2018-09-26T11:15:32.749Z,28.03
2018-09-26T11:18:00.687Z,27.17
2018-09-26T11:20:28.898Z,26.80
2018-09-26T11:22:57.115Z,26.36
2018-09-26T11:25:25.033Z,26.44
2018-09-26T11:27:53.094Z,26.17
2018-09-26T11:30:21.125Z,25.21
2018-09-26T11:32:48.960Z,24.40
2018-09-26T11:35:16.832Z,23.75
2018-09-26T11:37:44.756Z,23.50
2018-09-26T11:40:12.966Z,23.32
2018-09-26T11:42:40.954Z,23.66
2018-09-26T11:45:08.965Z,24.35
2018-09-26T11:47:37.194Z,25.16
2018-09-26T11:50:05.308Z,26.01
2018-09-26T11:52:33.408Z,27.03
2018-09-26T11:55:01.469Z,27.80
2018-09-26T11:57:29.602Z,28.27
2018-09-26T11:59:57.720Z,28.76
2018-09-26T12:02:25.835Z,29.26
2018-09-26T12:04:53.672Z,28.61
2018-09-26T12:07:21.553Z,27.21
2018-09-26T12:09:49.525Z,26.96
2018-09-26T12:12:17.619Z,27.44
2018-09-26T12:14:45.452Z,27.91
2018-09-26T12:17:13.390Z,27.61
2018-09-26T12:19:41.297Z,28.08
2018-09-26T12:22:09.327Z,28.63
2018-09-26T12:24:37.324Z,28.49
2018-09-26T12:27:05.435Z,28.87
2018-09-26T12:29:33.389Z,29.78
2018-09-26T12:32:01.337Z,30.19
2018-09-26T12:34:29.600Z,30.88
2018-09-26T12:36:57.620Z,31.70
2018-09-26T12:39:25.456Z,31.47
2018-09-26T12:41:53.474Z,31.18
2018-09-26T12:44:21.317Z,30.82
2018-09-26T12:46:49.287Z,29.82
2018-09-26T12:49:17.185Z,29.32
2018-09-26T12:51:45.098Z,28.58
2018-09-26T12:54:13.619Z,28.51
2018-09-26T12:56:41.631Z,27.21
2018-09-26T12:59:09.455Z,26.68
2018-09-26T13:01:37.432Z,25.74
2018-09-26T13:04:05.700Z,26.02
2018-09-26T13:06:33.602Z,25.98
2018-09-26T13:09:01.565Z,25.96
2018-09-26T13:11:29.454Z,25.26
2018-09-26T13:13:57.414Z,24.68
2018-09-26T13:16:25.473Z,24.97
2018-09-26T13:18:53.743Z,25.16
2018-09-26T13:21:21.502Z,25.34
2018-09-26T13:23:49.554Z,25.77
2018-09-26T13:26:17.478Z,26.16
2018-09-26T13:28:45.334Z,26.60
2018-09-26T13:31:13.317Z,26.36
2018-09-26T13:33:41.209Z,26.45
2018-09-26T13:36:09.229Z,26.59
2018-09-26T13:38:37.014Z,27.06
2018-09-26T13:41:05.121Z,26.13
2018-09-26T13:43:33.246Z,24.69
2018-09-26T13:46:01.538Z,23.46
2018-09-26T13:48:29.493Z,22.57
2018-09-26T13:50:57.612Z,22.07
2018-09-26T13:53:25.587Z,21.62
2018-09-26T13:55:53.489Z,21.79
2018-09-26T13:58:21.361Z,21.75
2018-09-26T14:00:49.182Z,21.05
2018-09-26T14:03:17.195Z,20.78
2018-09-26T14:05:45.126Z,20.52
2018-09-26T14:08:12.999Z,20.60
2018-09-26T14:10:40.925Z,21.12
2018-09-26T14:13:08.748Z,21.47
2018-09-26T14:15:36.890Z,21.62
2018-09-26T14:18:05.158Z,21.62
2018-09-26T14:20:32.951Z,21.65
2018-09-26T14:23:00.871Z,21.76
2018-09-26T14:25:29.041Z,21.97
2018-09-26T14:27:56.911Z,21.55
2018-09-26T14:30:25.183Z,21.23
2018-09-26T14:32:53.141Z,21.13
2018-09-26T14:35:21.427Z,20.94
2018-09-26T14:37:49.274Z,20.50
2018-09-26T14:40:17.251Z,20.18
2018-09-26T14:42:45.172Z,19.88
2018-09-26T14:45:13.329Z,20.13
2018-09-26T14:47:41.481Z,20.17
2018-09-26T14:50:09.447Z,20.18
2018-09-26T14:52:37.436Z,20.14
2018-09-26T14:55:05.430Z,20.18
2018-09-26T14:57:33.620Z,20.21
2018-09-26T15:00:01.443Z,20.06
2018-09-26T15:02:29.529Z,19.96
2018-09-26T15:04:57.974Z,19.54
2018-09-26T15:07:26.093Z,19.49
2018-09-26T15:09:54.153Z,19.45
2018-09-26T15:12:22.134Z,19.55
2018-09-26T15:14:49.991Z,19.60
2018-09-26T15:17:17.879Z,20.27
2018-09-26T15:19:45.789Z,21.15
2018-09-26T15:22:13.713Z,21.31
2018-09-26T15:24:41.571Z,20.93
2018-09-26T15:27:09.492Z,20.94
2018-09-26T15:29:37.317Z,20.70
2018-09-26T15:32:05.477Z,20.75
2018-09-26T15:34:33.181Z,20.74
2018-09-26T15:37:00.904Z,21.25
2018-09-26T15:42:27.155Z,21.44
2018-09-26T20:58:53.700Z,27.78
2018-09-26T21:04:39.655Z,23.26
2018-09-26T21:07:08.280Z,20.59
2018-09-26T21:09:36.841Z,19.01
2018-09-26T21:12:05.608Z,17.86
2018-09-26T21:14:34.154Z,17.11
2018-09-26T21:17:02.722Z,16.62
2018-09-26T21:19:31.425Z,16.51
2018-09-26T21:22:00.269Z,16.37
2018-09-26T21:24:28.940Z,16.15
2018-09-26T21:26:57.756Z,15.90
2018-09-26T21:29:26.701Z,15.67
2018-09-26T21:31:56.209Z,15.44
2018-09-26T21:36:54.593Z,15.07
2018-09-26T21:39:22.278Z,14.73
2018-09-26T21:41:50.051Z,14.45
2018-09-26T21:44:17.790Z,14.32
2018-09-26T21:46:45.492Z,14.22
2018-09-26T21:49:13.175Z,14.13
2018-09-26T21:51:40.855Z,14.08
2018-09-26T21:54:08.575Z,13.98
2018-09-26T21:56:36.301Z,13.90
2018-09-26T21:59:04.036Z,13.85
2018-09-26T22:01:31.956Z,13.91
2018-09-26T22:03:59.840Z,13.89
2018-09-26T22:06:27.606Z,13.92
2018-09-26T22:08:55.388Z,14.02
2018-09-26T22:11:23.368Z,13.98
2018-09-26T22:13:51.098Z,14.07
2018-09-26T22:16:18.829Z,14.10
2018-09-26T22:18:46.537Z,14.12
2018-09-26T22:21:14.201Z,14.16
2018-09-26T22:23:41.904Z,14.18
2018-09-26T22:26:09.710Z,14.14
2018-09-26T22:28:37.483Z,14.16
2018-09-26T22:31:05.220Z,14.10
2018-09-26T22:33:32.906Z,14.20
2018-09-26T22:36:00.685Z,14.22
2018-09-26T22:38:28.382Z,14.24
2018-09-26T22:40:56.272Z,14.30
2018-09-26T22:43:23.954Z,14.31
2018-09-26T22:45:51.689Z,14.39
2018-09-26T22:48:19.596Z,14.41
2018-09-26T22:50:47.360Z,14.35
2018-09-26T22:53:15.179Z,14.39
2018-09-26T22:55:42.892Z,14.44
2018-09-26T22:58:10.590Z,14.44
2018-09-26T23:00:38.283Z,14.51
2018-09-26T23:03:06.142Z,14.55
2018-09-26T23:05:33.828Z,14.59
2018-09-26T23:08:01.546Z,14.59
2018-09-26T23:10:29.260Z,14.60
2018-09-26T23:12:56.966Z,14.67
2018-09-26T23:15:24.788Z,14.69
2018-09-26T23:17:52.570Z,14.60
2018-09-26T23:20:20.370Z,14.63
2018-09-26T23:22:48.106Z,14.58
2018-09-26T23:25:15.843Z,14.63
2018-09-26T23:27:43.514Z,14.62
2018-09-26T23:30:11.222Z,14.56
2018-09-26T23:32:38.969Z,14.42
2018-09-26T23:35:06.707Z,14.38
2018-09-26T23:37:34.412Z,14.27
2018-09-26T23:40:02.120Z,14.24
2018-09-26T23:42:29.799Z,14.28
2018-09-26T23:44:57.481Z,14.25
2018-09-26T23:47:26.145Z,14.24
2018-09-26T23:49:53.825Z,14.18
2018-09-26T23:52:21.567Z,14.16
2018-09-26T23:54:49.715Z,14.14
2018-09-26T23:57:17.381Z,14.13
2018-09-26T23:59:45.116Z,14.19
